Time;durP1;ratioP1;P1;durP2;ratioP2;P2;SDS_P1;SDS_P2;PMS_P1;PMS_P2;Temp;Humidity;BMP_temperature;BMP_pressure;BME280_temperature;BME280_humidity;BME280_pressure;Samples;Min_cycle;Max_cycle;Signal;HPM_P1;HPM_P2
2022/08/01 00:03:53;;;;;;;5.97;5.27;;;;;;;;;;10206762;29;20818;-91
2022/08/01 00:08:56;;;;;;;5.70;5.10;;;;;;;;;;10201660;29;20451;-90
2022/08/01 00:13:58;;;;;;;5.20;4.70;;;;;;;;;;10200417;29;20412;-89
2022/08/01 00:19:01;;;;;;;5.32;4.70;;;;;;;;;;10205614;29;20508;-89
2022/08/01 00:24:03;;;;;;;5.57;4.33;;;;;;;;;;10202488;29;20842;-90
2022/08/01 00:29:05;;;;;;;4.87;4.47;;;;;;;;;;10199142;29;20529;-91
2022/08/01 00:34:08;;;;;;;5.53;5.00;;;;;;;;;;10205553;29;20752;-89
2022/08/01 00:39:11;;;;;;;5.30;4.80;;;;;;;;;;10204650;29;20456;-88
2022/08/01 00:44:13;;;;;;;5.43;5.00;;;;;;;;;;10222781;29;20418;-89
2022/08/01 00:49:17;;;;;;;5.40;4.93;;;;;;;;;;10213050;29;20417;-89
2022/08/01 00:54:19;;;;;;;4.82;4.32;;;;;;;;;;10198142;29;20517;-90
2022/08/01 00:59:22;;;;;;;5.17;4.60;;;;;;;;;;10194182;29;20517;-90
2022/08/01 01:04:26;;;;;;;5.55;4.70;;;;;;;;;;10196764;29;20422;-90
2022/08/01 01:09:39;;;;;;;5.77;4.37;;;;;;;;;;10205003;29;20425;-90
2022/08/01 01:14:53;;;;;;;4.85;4.38;;;;;;;;;;10205442;29;20779;-89
2022/08/01 01:20:00;;;;;;;4.30;3.90;;;;;;;;;;10210097;29;20895;-89
2022/08/01 01:25:32;;;;;;;4.95;3.85;;;;;;;;;;10208267;29;20855;-89
2022/08/01 01:30:37;;;;;;;5.83;4.13;;;;;;;;;;10192539;29;20417;-90
2022/08/01 01:35:45;;;;;;;5.50;4.17;;;;;;;;;;10210915;29;20438;-90
2022/08/01 01:40:49;;;;;;;5.35;4.85;;;;;;;;;;10204897;29;20508;-91
2022/08/01 01:45:54;;;;;;;5.38;4.88;;;;;;;;;;10211127;29;20449;-89
2022/08/01 01:50:57;;;;;;;4.97;4.57;;;;;;;;;;10208291;29;20500;-89
2022/08/01 01:56:01;;;;;;;5.73;5.13;;;;;;;;;;10204556;29;20468;-90
2022/08/01 02:01:07;;;;;;;5.47;4.75;;;;;;;;;;10207573;29;20512;-89
2022/08/01 02:06:09;;;;;;;5.50;5.00;;;;;;;;;;10211189;29;20843;-90
2022/08/01 02:11:21;;;;;;;5.70;4.80;;;;;;;;;;10208154;29;20714;-90
2022/08/01 02:16:29;;;;;;;6.03;4.45;;;;;;;;;;10214387;29;20930;-90
2022/08/01 02:21:35;;;;;;;5.00;4.50;;;;;;;;;;10208413;28;20508;-89
2022/08/01 02:26:42;;;;;;;6.07;4.18;;;;;;;;;;10206493;29;20422;-90
2022/08/01 02:31:46;;;;;;;5.93;5.13;;;;;;;;;;10212080;29;20563;-90
2022/08/01 02:36:50;;;;;;;5.72;5.10;;;;;;;;;;10209432;29;20521;-90
2022/08/01 02:41:58;;;;;;;5.50;5.00;;;;;;;;;;10207950;29;20485;-90
2022/08/01 02:47:04;;;;;;;6.13;5.45;;;;;;;;;;10211485;29;20493;-89
2022/08/01 02:52:09;;;;;;;6.17;5.33;;;;;;;;;;10211797;29;20469;-90
2022/08/01 02:57:12;;;;;;;6.05;5.28;;;;;;;;;;10200877;29;20504;-90
2022/08/01 03:02:16;;;;;;;7.43;5.40;;;;;;;;;;10202297;29;20433;-88
2022/08/01 03:07:20;;;;;;;6.20;5.37;;;;;;;;;;10202892;29;20446;-90
2022/08/01 03:12:26;;;;;;;5.88;5.30;;;;;;;;;;10201029;29;20489;-89
2022/08/01 03:17:31;;;;;;;6.45;5.20;;;;;;;;;;10201464;29;20516;-90
2022/08/01 03:22:35;;;;;;;6.07;5.10;;;;;;;;;;10200654;29;20543;-89
2022/08/01 03:27:37;;;;;;;5.85;4.80;;;;;;;;;;10198743;29;20456;-89
2022/08/01 03:32:41;;;;;;;5.00;4.50;;;;;;;;;;10201298;29;20500;-89
2022/08/01 03:37:46;;;;;;;4.90;4.28;;;;;;;;;;10201014;29;20524;-89
2022/08/01 03:42:51;;;;;;;4.60;4.20;;;;;;;;;;10201719;29;20448;-90
2022/08/01 03:48:00;;;;;;;5.83;4.13;;;;;;;;;;10201074;29;20445;-90
2022/08/01 03:53:04;;;;;;;4.35;3.80;;;;;;;;;;10197818;29;20610;-89
2022/08/01 03:58:07;;;;;;;5.18;3.80;;;;;;;;;;10196259;29;20516;-88
2022/08/01 04:03:13;;;;;;;4.70;3.90;;;;;;;;;;10201076;29;20827;-90
2022/08/01 04:08:14;;;;;;;4.57;3.50;;;;;;;;;;10199765;29;20468;-90
2022/08/01 04:13:16;;;;;;;5.90;4.38;;;;;;;;;;10200656;29;20422;-89
2022/08/01 04:18:20;;;;;;;4.97;3.60;;;;;;;;;;10199690;29;20421;-90
2022/08/01 04:23:27;;;;;;;5.18;3.88;;;;;;;;;;10196445;29;20455;-90
2022/08/01 04:28:30;;;;;;;3.83;3.28;;;;;;;;;;10200327;29;20418;-88
2022/08/01 04:33:36;;;;;;;3.50;3.20;;;;;;;;;;10200013;29;20738;-89
2022/08/01 04:38:39;;;;;;;4.63;3.10;;;;;;;;;;10193162;29;20432;-90
2022/08/01 04:43:42;;;;;;;3.83;3.00;;;;;;;;;;10206115;29;20413;-90
2022/08/01 04:48:46;;;;;;;3.50;3.20;;;;;;;;;;10213595;29;20413;-89
2022/08/01 04:53:48;;;;;;;4.05;2.88;;;;;;;;;;10208046;29;20449;-89
2022/08/01 04:59:39;;;;;;;4.43;3.10;;;;;;;;;;10208660;29;20459;-89
2022/08/01 05:04:13;;;;;;;3.70;3.30;;;;;;;;;;10211861;29;20410;-90
2022/08/01 05:09:15;;;;;;;4.43;3.10;;;;;;;;;;10239390;29;20516;-89
2022/08/01 05:14:17;;;;;;;3.38;2.67;;;;;;;;;;10209359;29;20466;-89
2022/08/01 05:19:22;;;;;;;3.85;3.10;;;;;;;;;;10206282;29;20481;-89
2022/08/01 05:24:23;;;;;;;3.58;2.80;;;;;;;;;;10207450;29;20422;-89
2022/08/01 05:29:26;;;;;;;4.43;2.58;;;;;;;;;;10212514;29;20768;-91
2022/08/01 05:34:29;;;;;;;3.30;2.70;;;;;;;;;;10216197;29;20449;-89
2022/08/01 05:39:31;;;;;;;3.80;2.63;;;;;;;;;;10207442;29;20454;-90
2022/08/01 05:44:33;;;;;;;3.13;2.83;;;;;;;;;;10208305;29;20412;-89
2022/08/01 05:49:36;;;;;;;3.45;3.00;;;;;;;;;;10211338;29;20428;-89
2022/08/01 05:54:38;;;;;;;3.38;3.00;;;;;;;;;;10208674;29;20493;-89
2022/08/01 05:59:40;;;;;;;4.53;3.00;;;;;;;;;;10207285;29;20422;-89
2022/08/01 06:04:44;;;;;;;5.03;2.60;;;;;;;;;;10204266;29;20445;-88
2022/08/01 06:09:46;;;;;;;6.70;2.78;;;;;;;;;;10209724;29;20915;-88
2022/08/01 06:14:48;;;;;;;4.35;2.60;;;;;;;;;;10206875;29;20497;-89
2022/08/01 06:19:51;;;;;;;4.57;2.40;;;;;;;;;;10212693;29;20460;-88
2022/08/01 06:24:53;;;;;;;4.90;2.50;;;;;;;;;;10205104;29;20417;-89
2022/08/01 06:29:56;;;;;;;6.55;3.08;;;;;;;;;;10207074;29;20410;-89
2022/08/01 06:34:59;;;;;;;6.40;2.70;;;;;;;;;;10208124;29;20438;-89
2022/08/01 06:40:02;;;;;;;3.92;3.25;;;;;;;;;;10204510;29;20465;-88
2022/08/01 06:45:04;;;;;;;3.35;2.70;;;;;;;;;;10207083;29;20410;-89
2022/08/01 06:50:09;;;;;;;5.15;2.70;;;;;;;;;;10206900;29;20440;-89
2022/08/01 06:55:11;;;;;;;4.83;2.70;;;;;;;;;;10203633;29;20416;-89
2022/08/01 07:00:15;;;;;;;4.80;2.75;;;;;;;;;;10196973;29;20490;-88
2022/08/01 07:05:19;;;;;;;4.15;2.50;;;;;;;;;;10199806;29;20440;-89
2022/08/01 07:10:21;;;;;;;4.70;3.20;;;;;;;;;;10199070;29;20497;-89
2022/08/01 07:15:26;;;;;;;3.63;2.50;;;;;;;;;;10199755;29;20880;-88
2022/08/01 07:20:29;;;;;;;4.47;2.55;;;;;;;;;;10186902;29;20430;-89
2022/08/01 07:25:31;;;;;;;3.63;2.83;;;;;;;;;;10198586;29;20452;-86
2022/08/01 07:30:33;;;;;;;3.80;2.60;;;;;;;;;;10199600;29;20416;-85
2022/08/01 07:35:37;;;;;;;4.40;2.80;;;;;;;;;;10198549;29;20520;-85
2022/08/01 07:40:39;;;;;;;4.57;2.72;;;;;;;;;;10193611;28;20453;-87
2022/08/01 07:45:42;;;;;;;2.63;2.37;;;;;;;;;;10202584;29;20666;-87
2022/08/01 07:50:45;;;;;;;3.67;2.38;;;;;;;;;;10194848;29;20626;-86
2022/08/01 07:55:47;;;;;;;2.95;2.10;;;;;;;;;;10195812;29;20423;-86
2022/08/01 08:00:49;;;;;;;2.55;1.85;;;;;;;;;;10193787;29;20800;-86
2022/08/01 08:05:52;;;;;;;6.23;2.90;;;;;;;;;;10197694;29;21372;-86
2022/08/01 08:10:54;;;;;;;4.57;2.50;;;;;;;;;;10197454;29;20420;-86
2022/08/01 08:15:58;;;;;;;3.60;2.20;;;;;;;;;;10187881;29;20435;-86
2022/08/01 08:21:01;;;;;;;3.70;2.72;;;;;;;;;;10197429;29;20409;-86
2022/08/01 08:26:03;;;;;;;5.95;3.03;;;;;;;;;;10199593;29;20413;-87
2022/08/01 08:31:06;;;;;;;4.97;2.50;;;;;;;;;;10198093;29;20420;-78
2022/08/01 08:36:11;;;;;;;3.27;2.27;;;;;;;;;;10194480;29;20448;-86
2022/08/01 08:41:13;;;;;;;2.53;2.33;;;;;;;;;;10193245;29;21138;-85
2022/08/01 08:46:15;;;;;;;3.38;2.08;;;;;;;;;;10192558;29;20802;-86
2022/08/01 08:51:19;;;;;;;2.10;1.90;;;;;;;;;;10197309;29;20410;-86
2022/08/01 08:56:24;;;;;;;2.25;2.00;;;;;;;;;;10196934;29;20419;-85
2022/08/01 09:01:26;;;;;;;2.20;2.10;;;;;;;;;;10194011;29;20924;-85
2022/08/01 09:06:29;;;;;;;3.47;2.13;;;;;;;;;;10198618;29;20409;-85
2022/08/01 09:11:32;;;;;;;2.53;2.33;;;;;;;;;;10199544;29;20418;-86
2022/08/01 09:16:36;;;;;;;3.15;2.20;;;;;;;;;;10213314;29;20426;-84
2022/08/01 09:21:41;;;;;;;2.92;2.10;;;;;;;;;;10194623;29;20420;-85
2022/08/01 09:26:44;;;;;;;2.45;2.25;;;;;;;;;;10196660;29;20921;-77
2022/08/01 09:31:47;;;;;;;2.50;2.30;;;;;;;;;;10208597;29;20424;-89
2022/08/01 09:36:54;;;;;;;3.53;2.13;;;;;;;;;;10208502;29;20424;-90
2022/08/01 09:41:58;;;;;;;3.40;2.25;;;;;;;;;;10196345;29;20422;-88
2022/08/01 09:47:00;;;;;;;2.55;2.20;;;;;;;;;;10199580;29;20556;-89
2022/08/01 09:52:13;;;;;;;2.50;2.20;;;;;;;;;;10203561;29;20438;-86
2022/08/01 09:57:19;;;;;;;2.08;1.60;;;;;;;;;;10198327;29;21053;-85
2022/08/01 10:02:33;;;;;;;2.92;1.50;;;;;;;;;;10198210;29;20422;-86
2022/08/01 10:07:37;;;;;;;2.10;1.80;;;;;;;;;;10198285;29;20410;-90
2022/08/01 10:12:41;;;;;;;1.70;1.60;;;;;;;;;;10197486;29;20981;-80
2022/08/01 10:17:52;;;;;;;4.68;2.00;;;;;;;;;;10191560;29;20884;-86
2022/08/01 10:22:59;;;;;;;2.25;1.70;;;;;;;;;;10194868;29;20517;-87
2022/08/01 10:28:08;;;;;;;2.10;1.90;;;;;;;;;;10193325;29;20579;-85
2022/08/01 10:33:11;;;;;;;2.17;1.90;;;;;;;;;;10198642;29;20426;-88
2022/08/01 10:38:15;;;;;;;2.83;1.90;;;;;;;;;;10195959;29;20469;-87
2022/08/01 10:43:18;;;;;;;2.27;1.90;;;;;;;;;;10199757;28;20463;-87
2022/08/01 10:48:29;;;;;;;1.80;1.70;;;;;;;;;;10205310;29;20406;-88
2022/08/01 10:53:48;;;;;;;1.88;1.70;;;;;;;;;;10226108;28;20417;-88
2022/08/01 10:59:04;;;;;;;3.60;1.70;;;;;;;;;;10225282;29;20429;-89
2022/08/01 11:04:11;;;;;;;2.10;1.90;;;;;;;;;;10192482;29;20972;-88
2022/08/01 11:09:29;;;;;;;3.33;1.97;;;;;;;;;;10186940;29;20761;-88
2022/08/01 11:14:31;;;;;;;2.35;1.90;;;;;;;;;;10186116;29;20771;-85
2022/08/01 11:20:05;;;;;;;2.20;1.90;;;;;;;;;;10183004;29;20517;-84
2022/08/01 11:25:09;;;;;;;2.40;1.90;;;;;;;;;;10182390;29;20441;-84
2022/08/01 11:30:25;;;;;;;2.50;2.08;;;;;;;;;;10182938;29;20964;-83
2022/08/01 11:35:29;;;;;;;2.13;1.80;;;;;;;;;;10183310;29;20410;-86
2022/08/01 11:40:32;;;;;;;2.70;1.80;;;;;;;;;;10181218;29;20441;-86
2022/08/01 11:45:48;;;;;;;3.33;1.73;;;;;;;;;;10175709;29;21249;-87
2022/08/01 11:50:51;;;;;;;2.25;1.90;;;;;;;;;;10179383;29;20449;-86
2022/08/01 11:55:56;;;;;;;2.00;1.90;;;;;;;;;;10180137;29;20421;-86
2022/08/01 12:00:59;;;;;;;1.90;1.70;;;;;;;;;;10184223;29;20533;-88
2022/08/01 12:06:02;;;;;;;2.20;2.00;;;;;;;;;;10183707;29;20405;-89
2022/08/01 12:11:06;;;;;;;2.87;2.10;;;;;;;;;;10186103;29;20417;-88
2022/08/01 12:16:08;;;;;;;2.65;2.00;;;;;;;;;;10175313;29;20928;-86
2022/08/01 12:21:12;;;;;;;2.63;2.03;;;;;;;;;;10176085;29;21431;-86
2022/08/01 12:26:15;;;;;;;2.00;1.90;;;;;;;;;;10179488;29;20490;-88
2022/08/01 12:31:17;;;;;;;1.92;1.73;;;;;;;;;;10181113;29;20414;-89
2022/08/01 12:36:28;;;;;;;1.67;1.58;;;;;;;;;;10180970;29;20838;-89
2022/08/01 12:41:33;;;;;;;2.30;1.88;;;;;;;;;;10181374;29;20544;-88
2022/08/01 12:46:35;;;;;;;2.03;1.50;;;;;;;;;;10176510;29;20425;-87
2022/08/01 12:51:37;;;;;;;1.98;1.60;;;;;;;;;;10177657;29;20497;-88
2022/08/01 12:56:40;;;;;;;1.60;1.50;;;;;;;;;;10183308;29;20410;-87
2022/08/01 13:01:42;;;;;;;2.87;1.97;;;;;;;;;;10184214;29;20446;-87
2022/08/01 13:06:45;;;;;;;1.85;1.23;;;;;;;;;;10181811;29;20418;-87
2022/08/01 13:11:49;;;;;;;1.88;1.42;;;;;;;;;;10183846;29;20431;-87
2022/08/01 13:16:51;;;;;;;1.45;1.30;;;;;;;;;;10185884;29;21241;-89
2022/08/01 13:21:57;;;;;;;1.48;1.38;;;;;;;;;;10180230;29;20476;-88
2022/08/01 13:27:03;;;;;;;2.90;1.40;;;;;;;;;;10185738;29;20421;-88
2022/08/01 13:32:14;;;;;;;1.50;1.40;;;;;;;;;;10185308;29;20500;-86
2022/08/01 13:37:16;;;;;;;2.42;1.30;;;;;;;;;;10189596;29;20723;-86
2022/08/01 13:42:19;;;;;;;1.90;1.25;;;;;;;;;;10197845;29;20489;-88
2022/08/01 13:47:21;;;;;;;1.43;1.30;;;;;;;;;;10195067;29;20853;-85
2022/08/01 13:52:23;;;;;;;1.30;1.20;;;;;;;;;;10195052;29;20428;-84
2022/08/01 13:57:27;;;;;;;1.67;1.40;;;;;;;;;;10190334;29;20509;-85
2022/08/01 14:02:29;;;;;;;1.50;1.40;;;;;;;;;;10185201;29;20461;-86
2022/08/01 14:07:30;;;;;;;2.05;1.40;;;;;;;;;;10189485;29;20618;-87
2022/08/01 14:12:34;;;;;;;1.70;1.37;;;;;;;;;;10189420;29;20423;-87
2022/08/01 14:17:35;;;;;;;1.33;1.23;;;;;;;;;;10158239;29;20433;-86
2022/08/01 14:22:39;;;;;;;1.20;1.20;;;;;;;;;;10148051;29;20414;-87
2022/08/01 14:27:42;;;;;;;2.07;1.30;;;;;;;;;;10152730;29;20916;-86
2022/08/01 14:32:44;;;;;;;1.40;1.30;;;;;;;;;;10154767;29;21243;-88
2022/08/01 14:37:46;;;;;;;1.40;1.30;;;;;;;;;;10154880;29;21013;-87
2022/08/01 14:42:50;;;;;;;2.53;1.20;;;;;;;;;;10154616;29;20439;-86
2022/08/01 14:47:52;;;;;;;2.97;1.10;;;;;;;;;;10156351;29;20425;-86
2022/08/01 14:52:54;;;;;;;1.20;1.20;;;;;;;;;;10152999;29;20415;-88
2022/08/01 14:57:57;;;;;;;1.27;1.17;;;;;;;;;;10157959;29;20468;-79
2022/08/01 15:02:59;;;;;;;1.50;1.20;;;;;;;;;;10154978;29;20449;-91
2022/08/01 15:08:01;;;;;;;2.05;1.40;;;;;;;;;;10158509;29;20497;-90
2022/08/01 15:13:04;;;;;;;2.43;1.30;;;;;;;;;;10156012;29;20494;-91
2022/08/01 15:18:06;;;;;;;3.28;1.30;;;;;;;;;;10192239;29;20856;-91
2022/08/01 15:23:09;;;;;;;3.10;1.30;;;;;;;;;;10175528;29;20414;-88
2022/08/01 15:28:12;;;;;;;1.80;1.20;;;;;;;;;;10190542;29;20417;-90
2022/08/01 15:33:15;;;;;;;2.78;1.35;;;;;;;;;;10196670;29;20856;-90
2022/08/01 15:38:17;;;;;;;2.50;1.30;;;;;;;;;;10197715;29;20433;-90
2022/08/01 15:43:20;;;;;;;1.38;1.10;;;;;;;;;;10195405;29;20494;-90
2022/08/01 15:48:22;;;;;;;1.50;1.40;;;;;;;;;;10208575;29;20446;-89
2022/08/01 15:53:24;;;;;;;1.63;1.10;;;;;;;;;;10199139;29;20418;-91
2022/08/01 15:58:28;;;;;;;2.10;1.20;;;;;;;;;;10196529;29;20433;-90
2022/08/01 16:03:29;;;;;;;1.27;1.10;;;;;;;;;;10181027;29;20414;-90
2022/08/01 16:08:32;;;;;;;1.35;1.15;;;;;;;;;;10199458;29;20447;-91
2022/08/01 16:13:36;;;;;;;3.50;1.00;;;;;;;;;;10193604;29;20418;-90
2022/08/01 16:18:38;;;;;;;2.20;1.20;;;;;;;;;;10198557;29;20528;-92
2022/08/01 16:23:40;;;;;;;1.50;1.00;;;;;;;;;;10189135;29;21149;-90
2022/08/01 16:28:47;;;;;;;3.33;1.33;;;;;;;;;;10191270;29;20406;-92
2022/08/01 16:33:49;;;;;;;3.95;1.20;;;;;;;;;;10191205;29;20440;-85
2022/08/01 16:38:51;;;;;;;1.80;1.10;;;;;;;;;;10187773;29;21158;-85
2022/08/01 16:43:54;;;;;;;1.80;1.10;;;;;;;;;;10196835;29;20418;-85
2022/08/01 16:48:56;;;;;;;1.17;1.10;;;;;;;;;;10192687;29;20424;-84
2022/08/01 16:53:58;;;;;;;1.20;1.10;;;;;;;;;;10185795;29;20990;-78
2022/08/01 16:59:02;;;;;;;3.40;1.23;;;;;;;;;;10192720;29;20985;-85
2022/08/01 17:04:04;;;;;;;2.50;1.00;;;;;;;;;;10200245;29;20407;-85
2022/08/01 17:09:08;;;;;;;3.22;1.05;;;;;;;;;;10198063;29;20420;-89
2022/08/01 17:14:11;;;;;;;2.17;1.00;;;;;;;;;;10203504;29;20424;-89
2022/08/01 17:19:13;;;;;;;2.00;1.30;;;;;;;;;;10191646;29;20441;-87
2022/08/01 17:24:15;;;;;;;2.25;2.05;;;;;;;;;;10191330;29;20410;-86
2022/08/01 17:29:18;;;;;;;3.03;2.50;;;;;;;;;;10193954;29;20528;-80
2022/08/01 17:34:20;;;;;;;1.80;1.15;;;;;;;;;;10193959;29;20429;-85
2022/08/01 17:39:22;;;;;;;1.60;1.10;;;;;;;;;;10198981;29;20464;-85
2022/08/01 17:44:26;;;;;;;2.83;1.40;;;;;;;;;;10221237;29;20441;-86
2022/08/01 17:49:28;;;;;;;1.95;0.95;;;;;;;;;;10219432;29;20426;-85
2022/08/01 17:54:29;;;;;;;1.60;1.05;;;;;;;;;;10206872;29;20428;-85
2022/08/01 17:59:33;;;;;;;3.10;2.43;;;;;;;;;;10212160;29;20451;-86
2022/08/01 18:04:34;;;;;;;2.03;1.00;;;;;;;;;;10208695;29;20578;-85
2022/08/01 18:09:36;;;;;;;1.30;1.10;;;;;;;;;;10207929;29;20441;-85
2022/08/01 18:14:40;;;;;;;1.50;0.98;;;;;;;;;;10203156;29;20428;-89
2022/08/01 18:19:42;;;;;;;1.20;1.10;;;;;;;;;;10202755;29;20438;-90
2022/08/01 18:24:43;;;;;;;1.00;1.00;;;;;;;;;;10205819;29;20428;-90
2022/08/01 18:29:47;;;;;;;2.40;1.15;;;;;;;;;;10211080;29;20481;-89
2022/08/01 18:34:49;;;;;;;3.17;1.13;;;;;;;;;;10200056;28;20498;-90
2022/08/01 18:39:50;;;;;;;1.70;1.10;;;;;;;;;;10200928;29;20991;-89
2022/08/01 18:44:54;;;;;;;1.67;1.05;;;;;;;;;;10198384;29;20501;-88
2022/08/01 18:49:55;;;;;;;1.27;1.00;;;;;;;;;;10196740;29;20413;-86
2022/08/01 18:54:58;;;;;;;2.60;1.20;;;;;;;;;;10199501;29;20421;-87
2022/08/01 19:00:02;;;;;;;3.70;1.30;;;;;;;;;;10196056;29;20442;-88
2022/08/01 19:05:04;;;;;;;2.40;1.40;;;;;;;;;;10199401;29;20418;-86
2022/08/01 19:10:06;;;;;;;3.45;1.58;;;;;;;;;;10200103;29;20962;-86
2022/08/01 19:15:10;;;;;;;2.72;1.40;;;;;;;;;;10203227;29;20493;-87
2022/08/01 19:20:12;;;;;;;2.50;1.90;;;;;;;;;;10199913;29;20441;-87
2022/08/01 19:25:15;;;;;;;3.45;1.38;;;;;;;;;;10193936;29;20432;-88
2022/08/01 19:30:21;;;;;;;2.15;1.33;;;;;;;;;;10193790;29;20468;-87
2022/08/01 19:35:24;;;;;;;4.37;1.57;;;;;;;;;;10188111;29;20453;-86
2022/08/01 19:40:26;;;;;;;4.43;1.95;;;;;;;;;;10190754;29;20840;-86
2022/08/01 19:45:35;;;;;;;3.13;1.70;;;;;;;;;;10192961;29;20466;-88
2022/08/01 19:50:41;;;;;;;1.53;1.40;;;;;;;;;;10189418;29;20414;-89
2022/08/01 19:55:56;;;;;;;3.42;1.90;;;;;;;;;;10185714;29;20451;-89
2022/08/01 20:01:00;;;;;;;2.47;1.60;;;;;;;;;;10187284;29;20524;-87
2022/08/01 20:06:02;;;;;;;3.88;1.70;;;;;;;;;;10186966;29;21172;-86
2022/08/01 20:11:08;;;;;;;1.85;1.40;;;;;;;;;;10192421;29;20419;-86
2022/08/01 20:16:11;;;;;;;2.27;1.47;;;;;;;;;;10189451;29;21762;-88
2022/08/01 20:21:14;;;;;;;4.13;1.43;;;;;;;;;;10188912;29;20492;-85
2022/08/01 20:26:16;;;;;;;2.78;1.45;;;;;;;;;;10194309;29;20504;-86
2022/08/01 20:31:22;;;;;;;2.50;1.33;;;;;;;;;;10197887;29;20981;-87
2022/08/01 20:36:26;;;;;;;3.90;1.80;;;;;;;;;;10185356;29;20418;-86
2022/08/01 20:41:28;;;;;;;3.17;1.70;;;;;;;;;;10189622;29;20426;-86
2022/08/01 20:46:32;;;;;;;3.07;1.60;;;;;;;;;;10194023;29;20819;-86
2022/08/01 20:51:35;;;;;;;3.25;1.55;;;;;;;;;;10195587;29;20516;-86
2022/08/01 20:56:39;;;;;;;2.42;1.58;;;;;;;;;;10190263;29;20497;-87
2022/08/01 21:01:47;;;;;;;2.50;1.73;;;;;;;;;;10191144;29;20433;-86
2022/08/01 21:06:54;;;;;;;2.03;1.75;;;;;;;;;;10189740;29;20420;-88
2022/08/01 21:12:00;;;;;;;3.75;1.63;;;;;;;;;;10190031;29;20413;-88
2022/08/01 21:17:09;;;;;;;2.50;1.50;;;;;;;;;;10193581;29;20504;-86
2022/08/01 21:22:17;;;;;;;2.92;1.52;;;;;;;;;;10192903;29;20425;-86
2022/08/01 21:27:21;;;;;;;2.40;1.60;;;;;;;;;;10198540;29;20512;-86
2022/08/01 21:32:28;;;;;;;3.67;1.65;;;;;;;;;;10209389;29;20421;-86
2022/08/01 21:37:30;;;;;;;1.65;1.42;;;;;;;;;;10203723;29;20413;-86
2022/08/01 21:42:33;;;;;;;2.13;1.60;;;;;;;;;;10208212;29;20429;-87
2022/08/01 21:47:37;;;;;;;2.38;1.50;;;;;;;;;;10207252;29;20498;-88
2022/08/01 21:52:44;;;;;;;2.50;1.67;;;;;;;;;;10204768;29;20420;-86
2022/08/01 21:57:59;;;;;;;3.28;1.92;;;;;;;;;;10206624;29;20917;-88
2022/08/01 22:03:20;;;;;;;3.20;1.90;;;;;;;;;;10203071;29;20428;-87
2022/08/01 22:08:29;;;;;;;3.70;1.92;;;;;;;;;;10206350;29;20428;-87
2022/08/01 22:13:32;;;;;;;2.07;1.77;;;;;;;;;;10207789;29;20437;-87
2022/08/01 22:18:36;;;;;;;2.50;2.17;;;;;;;;;;10205544;29;20489;-87
2022/08/01 22:23:38;;;;;;;1.85;1.50;;;;;;;;;;10197570;29;20436;-86
2022/08/01 22:28:40;;;;;;;5.70;2.92;;;;;;;;;;10206473;29;20434;-86
2022/08/01 22:33:46;;;;;;;3.10;1.77;;;;;;;;;;10213574;29;20527;-86
2022/08/01 22:38:48;;;;;;;2.90;1.73;;;;;;;;;;10205191;29;20428;-88
2022/08/01 22:43:57;;;;;;;3.58;1.90;;;;;;;;;;10198546;29;20520;-86
2022/08/01 22:49:07;;;;;;;2.90;1.90;;;;;;;;;;10200850;29;20507;-87
2022/08/01 22:54:13;;;;;;;3.53;1.80;;;;;;;;;;10204559;29;20450;-87
2022/08/01 22:59:16;;;;;;;4.20;1.88;;;;;;;;;;10209867;29;20441;-86
2022/08/01 23:04:27;;;;;;;3.45;1.60;;;;;;;;;;10200167;29;20469;-87
2022/08/01 23:09:32;;;;;;;4.65;2.08;;;;;;;;;;10199339;29;20413;-87
2022/08/01 23:14:34;;;;;;;3.17;2.27;;;;;;;;;;10199492;29;21053;-86
2022/08/01 23:19:39;;;;;;;2.47;2.00;;;;;;;;;;10197799;29;20432;-87
2022/08/01 23:24:43;;;;;;;2.53;1.85;;;;;;;;;;10201311;29;20517;-85
2022/08/01 23:29:47;;;;;;;3.95;2.17;;;;;;;;;;10201867;29;20473;-86
2022/08/01 23:34:52;;;;;;;3.13;2.40;;;;;;;;;;10198351;29;20421;-86
2022/08/01 23:39:54;;;;;;;3.70;2.40;;;;;;;;;;10199253;29;20432;-88
2022/08/01 23:44:55;;;;;;;3.00;2.20;;;;;;;;;;10200860;29;20517;-87
2022/08/01 23:49:59;;;;;;;2.30;1.80;;;;;;;;;;10199303;29;20779;-89
2022/08/01 23:55:01;;;;;;;2.65;2.13;;;;;;;;;;10196811;29;20893;-88
